Time;durP1;ratioP1;P1;durP2;ratioP2;P2;SDS_P1;SDS_P2;PMS_P1;PMS_P2;Temp;Humidity;BMP_temperature;BMP_pressure;BME280_temperature;BME280_humidity;BME280_pressure;Samples;Min_cycle;Max_cycle;Signal;HPM_P1;HPM_P2
2021/08/17 00:01:25;;;;;;;27.80;11.77;;;19.80;55.40;;;;;;5086311;28;20534;-87
2021/08/17 00:03:52;;;;;;;16.53;8.50;;;20.00;54.00;;;;;;5087374;28;20495;-87
2021/08/17 00:06:19;;;;;;;13.80;7.70;;;20.30;52.70;;;;;;5087642;28;20447;-88
2021/08/17 00:08:47;;;;;;;11.90;6.10;;;20.50;53.70;;;;;;5088919;28;20930;-86
2021/08/17 00:11:14;;;;;;;17.70;9.90;;;20.60;52.20;;;;;;5097074;28;20446;-86
2021/08/17 00:13:42;;;;;;;8.77;5.27;;;21.10;54.40;;;;;;5092558;28;20561;-87
2021/08/17 00:16:09;;;;;;;12.80;6.17;;;21.00;50.00;;;;;;5087912;28;20577;-86
2021/08/17 00:18:36;;;;;;;15.90;7.50;;;20.70;51.60;;;;;;5088249;28;20666;-87
2021/08/17 00:21:03;;;;;;;13.47;7.47;;;21.00;52.50;;;;;;5087777;28;20474;-87
2021/08/17 00:23:31;;;;;;;11.90;6.87;;;21.20;51.60;;;;;;5088457;28;20493;-87
2021/08/17 00:25:59;;;;;;;13.13;8.60;;;21.20;53.10;;;;;;5088455;28;20431;-87
2021/08/17 00:28:26;;;;;;;26.10;12.13;;;21.20;52.40;;;;;;5086957;28;20463;-87
2021/08/17 00:30:53;;;;;;;16.17;8.43;;;21.20;52.80;;;;;;5087327;28;20447;-87
2021/08/17 00:33:20;;;;;;;15.80;7.80;;;21.50;52.60;;;;;;5086142;28;20458;-87
2021/08/17 00:35:47;;;;;;;12.63;6.83;;;21.70;51.10;;;;;;5087335;28;20466;-87
2021/08/17 00:38:14;;;;;;;14.67;7.93;;;21.70;50.00;;;;;;5097112;28;20497;-87
2021/08/17 00:40:41;;;;;;;9.50;5.60;;;21.30;50.80;;;;;;5097312;28;20911;-87
2021/08/17 00:43:10;;;;;;;10.67;7.37;;;21.20;51.20;;;;;;5089852;28;20443;-87
2021/08/17 00:45:38;;;;;;;14.13;7.83;;;21.50;51.10;;;;;;5089912;28;20495;-87
2021/08/17 00:48:05;;;;;;;10.30;5.27;;;21.50;49.30;;;;;;5090553;28;20470;-87
2021/08/17 00:50:35;;;;;;;10.97;6.50;;;20.80;49.00;;;;;;5090037;28;20540;-87
2021/08/17 00:53:03;;;;;;;8.47;5.60;;;20.60;51.70;;;;;;5089434;28;20455;-88
2021/08/17 00:55:30;;;;;;;5.93;4.57;;;20.40;51.40;;;;;;5070954;28;20464;-87
2021/08/17 00:57:57;;;;;;;10.70;6.37;;;20.40;50.00;;;;;;5069677;28;20514;-87
2021/08/17 01:00:26;;;;;;;9.80;5.40;;;20.10;51.80;;;;;;5070244;28;20480;-87
2021/08/17 01:02:53;;;;;;;9.33;6.03;;;19.80;51.90;;;;;;5069170;28;20468;-87
2021/08/17 01:05:24;;;;;;;12.83;6.87;;;20.30;51.90;;;;;;5068058;28;21027;-87
2021/08/17 01:07:52;;;;;;;10.93;6.00;;;19.90;52.40;;;;;;5067786;28;20463;-87
2021/08/17 01:10:19;;;;;;;14.40;7.27;;;20.30;53.60;;;;;;5068386;28;20448;-87
2021/08/17 01:12:46;;;;;;;11.53;6.27;;;20.20;53.20;;;;;;5068830;28;20820;-87
2021/08/17 01:15:15;;;;;;;10.47;5.60;;;19.70;49.80;;;;;;5067702;28;20472;-87
2021/08/17 01:17:44;;;;;;;10.30;6.40;;;19.30;47.70;;;;;;5068156;28;20476;-86
2021/08/17 01:20:15;;;;;;;12.60;7.50;;;19.10;55.40;;;;;;5068578;28;20432;-87
2021/08/17 01:22:42;;;;;;;11.47;6.00;;;19.40;51.50;;;;;;5068338;28;20477;-87
2021/08/17 01:25:11;;;;;;;8.57;5.80;;;18.90;50.20;;;;;;5068698;28;20874;-87
2021/08/17 01:27:40;;;;;;;7.40;5.40;;;19.30;53.90;;;;;;5067505;28;20840;-87
2021/08/17 01:30:07;;;;;;;13.27;7.33;;;19.50;55.30;;;;;;5066404;28;20945;-87
2021/08/17 01:32:34;;;;;;;36.53;5.77;;;20.20;54.10;;;;;;5070062;28;20433;-86
2021/08/17 01:35:01;;;;;;;12.47;6.60;;;19.80;50.40;;;;;;5067988;28;20499;-87
2021/08/17 01:37:28;;;;;;;9.97;6.03;;;19.60;53.10;;;;;;5067074;28;20472;-87
2021/08/17 01:40:00;;;;;;;11.10;5.87;;;19.80;50.60;;;;;;5066496;28;20448;-87
2021/08/17 01:42:27;;;;;;;9.13;5.10;;;19.90;48.30;;;;;;5065246;28;20585;-87
2021/08/17 01:44:57;;;;;;;8.67;5.60;;;19.80;48.30;;;;;;5067175;28;20468;-87
2021/08/17 01:47:24;;;;;;;13.60;6.70;;;19.70;51.60;;;;;;5067724;28;20436;-87
2021/08/17 01:49:51;;;;;;;12.60;6.83;;;19.80;50.10;;;;;;5070117;28;20429;-87
2021/08/17 01:52:19;;;;;;;8.47;6.00;;;19.60;52.00;;;;;;5069846;28;20484;-87
2021/08/17 01:54:45;;;;;;;12.70;5.93;;;19.60;51.80;;;;;;5070482;28;20973;-87
2021/08/17 01:57:12;;;;;;;9.83;6.23;;;19.60;50.70;;;;;;5069062;28;20476;-87
2021/08/17 01:59:39;;;;;;;9.33;5.87;;;19.70;51.40;;;;;;5068016;28;20448;-87
2021/08/17 02:02:08;;;;;;;8.40;5.50;;;19.80;51.10;;;;;;5068824;28;20460;-86
2021/08/17 02:04:36;;;;;;;10.13;6.40;;;19.80;51.40;;;;;;5068408;28;20535;-87
2021/08/17 02:07:03;;;;;;;8.03;5.97;;;19.90;50.00;;;;;;5068014;28;20433;-87
2021/08/17 02:09:30;;;;;;;13.00;7.30;;;20.10;53.40;;;;;;5067876;28;20443;-87
2021/08/17 02:11:57;;;;;;;13.97;6.50;;;20.00;52.60;;;;;;5067883;28;20452;-87
2021/08/17 02:14:24;;;;;;;9.70;6.13;;;20.30;51.20;;;;;;5067622;28;20503;-87
2021/08/17 02:16:51;;;;;;;7.33;5.53;;;20.40;50.50;;;;;;5068928;28;20825;-87
2021/08/17 02:19:20;;;;;;;10.17;5.60;;;20.40;51.60;;;;;;5068801;28;20428;-87
2021/08/17 02:21:47;;;;;;;9.63;6.20;;;20.50;52.10;;;;;;5068823;28;20600;-87
2021/08/17 02:24:14;;;;;;;9.13;5.17;;;20.40;51.60;;;;;;5070280;28;20457;-87
2021/08/17 02:26:41;;;;;;;12.77;6.13;;;20.10;48.50;;;;;;5070194;28;20449;-87
2021/08/17 02:29:07;;;;;;;11.20;6.00;;;20.00;51.70;;;;;;5068586;28;20433;-88
2021/08/17 02:31:34;;;;;;;10.80;5.23;;;20.40;51.50;;;;;;5067199;28;20492;-87
2021/08/17 02:34:01;;;;;;;9.60;6.27;;;19.80;49.20;;;;;;5066793;28;20483;-88
2021/08/17 02:36:30;;;;;;;12.10;5.23;;;19.70;52.40;;;;;;5068478;28;20433;-87
2021/08/17 02:38:56;;;;;;;9.20;5.40;;;20.10;52.30;;;;;;5069118;28;20459;-87
2021/08/17 02:41:23;;;;;;;7.67;5.17;;;20.40;53.20;;;;;;5069399;28;20433;-87
2021/08/17 02:43:50;;;;;;;11.13;5.43;;;20.60;51.60;;;;;;5067599;28;20495;-87
2021/08/17 02:46:17;;;;;;;6.70;4.67;;;20.10;48.80;;;;;;5068543;28;20444;-87
2021/08/17 02:48:44;;;;;;;13.17;6.27;;;20.10;52.00;;;;;;5069616;28;20444;-87
2021/08/17 02:51:11;;;;;;;8.77;5.07;;;20.40;47.00;;;;;;5071008;28;20471;-87
2021/08/17 02:53:40;;;;;;;10.33;5.27;;;19.90;46.30;;;;;;5073289;28;20443;-87
2021/08/17 02:56:06;;;;;;;11.97;5.20;;;19.70;48.40;;;;;;5073102;28;20468;-87
2021/08/17 02:58:33;;;;;;;10.43;5.80;;;19.40;48.90;;;;;;5074580;28;21005;-87
2021/08/17 03:01:00;;;;;;;7.17;5.10;;;18.90;51.30;;;;;;5075017;28;20475;-87
2021/08/17 03:03:27;;;;;;;8.70;5.40;;;18.80;50.60;;;;;;5072882;28;20459;-87
2021/08/17 03:05:54;;;;;;;10.47;5.77;;;19.00;48.80;;;;;;5075110;28;20435;-86
2021/08/17 03:08:21;;;;;;;9.70;5.60;;;18.90;48.60;;;;;;5080988;28;20455;-86
2021/08/17 03:10:49;;;;;;;10.03;5.97;;;18.90;52.00;;;;;;5077177;28;20509;-87
2021/08/17 03:13:16;;;;;;;9.93;5.47;;;19.00;52.50;;;;;;5073904;28;20444;-87
2021/08/17 03:15:43;;;;;;;9.37;5.70;;;19.20;52.50;;;;;;5073507;28;20478;-87
2021/08/17 03:18:10;;;;;;;10.23;5.37;;;19.70;53.10;;;;;;5073617;28;20479;-86
2021/08/17 03:20:38;;;;;;;9.00;4.87;;;19.90;52.50;;;;;;5076359;28;20450;-87
2021/08/17 03:23:06;;;;;;;9.13;5.33;;;20.00;50.60;;;;;;5076447;28;20459;-87
2021/08/17 03:25:33;;;;;;;6.80;4.57;;;19.80;51.50;;;;;;5076973;28;20958;-87
2021/08/17 03:28:01;;;;;;;12.27;5.47;;;19.60;50.60;;;;;;5076854;28;20535;-87
2021/08/17 03:30:28;;;;;;;7.97;4.97;;;19.30;50.00;;;;;;5077016;28;20432;-86
2021/08/17 03:32:56;;;;;;;10.43;5.47;;;19.00;52.50;;;;;;5074462;28;20466;-86
2021/08/17 03:35:23;;;;;;;8.33;5.00;;;19.00;51.70;;;;;;5074954;28;20456;-87
2021/08/17 03:37:50;;;;;;;12.20;4.43;;;19.10;52.10;;;;;;5073713;28;20471;-87
2021/08/17 03:40:20;;;;;;;8.17;5.03;;;19.40;49.00;;;;;;5074585;28;20525;-87
2021/08/17 03:42:47;;;;;;;8.30;5.33;;;18.90;49.70;;;;;;5073492;28;20432;-87
2021/08/17 03:45:17;;;;;;;12.87;5.50;;;18.60;53.50;;;;;;5073151;28;20491;-87
2021/08/17 03:47:45;;;;;;;9.67;5.30;;;19.00;54.00;;;;;;5073011;28;20424;-89
2021/08/17 03:50:13;;;;;;;8.13;5.23;;;19.50;52.70;;;;;;5072617;28;20444;-88
2021/08/17 03:52:42;;;;;;;11.10;5.87;;;19.40;51.90;;;;;;5073549;28;20436;-88
2021/08/17 03:55:10;;;;;;;11.73;5.73;;;19.30;50.90;;;;;;5074896;28;20496;-87
2021/08/17 03:57:37;;;;;;;11.67;5.90;;;18.50;51.00;;;;;;5074973;28;20504;-87
2021/08/17 04:00:04;;;;;;;7.20;5.13;;;18.20;50.00;;;;;;5074525;28;20515;-87
2021/08/17 04:02:33;;;;;;;9.50;5.33;;;17.80;53.00;;;;;;5071995;28;20444;-87
2021/08/17 04:04:59;;;;;;;12.17;7.00;;;17.60;52.40;;;;;;5070455;28;20448;-87
2021/08/17 04:07:26;;;;;;;10.53;6.00;;;17.50;52.50;;;;;;5072384;28;20493;-87
2021/08/17 04:09:53;;;;;;;16.13;7.10;;;17.50;54.80;;;;;;5072056;28;20460;-88
2021/08/17 04:12:20;;;;;;;14.33;6.90;;;17.10;50.10;;;;;;5071334;28;20479;-88
2021/08/17 04:14:47;;;;;;;9.70;6.07;;;16.50;51.80;;;;;;5070775;28;20495;-88
2021/08/17 04:17:14;;;;;;;10.67;6.30;;;16.60;55.80;;;;;;5070287;28;20440;-87
2021/08/17 04:19:43;;;;;;;13.47;6.40;;;17.00;52.10;;;;;;5069573;28;20444;-87
2021/08/17 04:22:11;;;;;;;10.00;6.03;;;17.40;54.90;;;;;;5071113;28;20444;-87
2021/08/17 04:24:38;;;;;;;15.40;7.20;;;17.90;55.80;;;;;;5069877;28;20518;-87
2021/08/17 04:27:05;;;;;;;9.10;5.23;;;18.70;50.50;;;;;;5069382;28;20464;-88
2021/08/17 04:29:32;;;;;;;7.23;5.10;;;18.80;51.80;;;;;;5069811;28;20449;-87
2021/08/17 04:32:00;;;;;;;10.67;5.90;;;18.80;52.00;;;;;;5073968;28;20432;-86
2021/08/17 04:34:27;;;;;;;9.47;5.87;;;18.80;52.30;;;;;;5075064;28;20468;-86
2021/08/17 04:36:55;;;;;;;9.47;6.00;;;18.70;52.60;;;;;;5079033;28;20441;-86
2021/08/17 04:39:22;;;;;;;9.83;5.77;;;18.50;50.30;;;;;;5078362;28;20471;-88
2021/08/17 04:41:49;;;;;;;10.37;5.33;;;18.60;50.50;;;;;;5072813;28;20425;-87
2021/08/17 04:44:16;;;;;;;9.30;5.80;;;18.70;49.10;;;;;;5070867;28;20571;-88
2021/08/17 04:46:43;;;;;;;9.03;5.43;;;19.20;53.30;;;;;;5070716;28;20432;-87
2021/08/17 04:49:10;;;;;;;7.13;4.60;;;19.20;48.30;;;;;;5067086;28;20471;-87
2021/08/17 04:51:37;;;;;;;11.03;6.73;;;19.00;50.30;;;;;;5068055;28;20424;-87
2021/08/17 04:54:06;;;;;;;10.93;5.33;;;19.20;52.10;;;;;;5066141;28;20472;-87
2021/08/17 04:56:33;;;;;;;7.87;5.30;;;19.30;48.60;;;;;;5066172;28;20448;-87
2021/08/17 04:59:00;;;;;;;10.33;5.37;;;19.60;49.60;;;;;;5071037;28;20480;-85
2021/08/17 05:01:27;;;;;;;10.30;5.73;;;19.80;51.50;;;;;;5071922;28;20444;-86
2021/08/17 05:03:54;;;;;;;8.67;5.03;;;19.90;51.30;;;;;;5070794;28;20475;-86
2021/08/17 05:06:21;;;;;;;9.90;5.30;;;20.00;51.10;;;;;;5071039;28;20451;-88
2021/08/17 05:08:48;;;;;;;16.77;5.90;;;19.80;44.70;;;;;;5072233;28;20449;-87
2021/08/17 05:11:17;;;;;;;8.10;4.60;;;20.00;48.00;;;;;;5072279;28;20471;-87
2021/08/17 05:13:44;;;;;;;9.27;5.10;;;19.90;49.30;;;;;;5071489;28;20472;-87
2021/08/17 05:16:11;;;;;;;7.97;5.03;;;19.70;46.00;;;;;;5070370;28;20447;-87
2021/08/17 05:18:38;;;;;;;10.23;5.30;;;19.10;48.40;;;;;;5070587;28;20511;-86
2021/08/17 05:21:06;;;;;;;12.67;5.80;;;19.30;46.10;;;;;;5071764;28;20433;-86
2021/08/17 05:23:33;;;;;;;9.00;5.57;;;19.00;48.00;;;;;;5070578;28;20818;-87
2021/08/17 05:26:00;;;;;;;9.50;5.17;;;18.80;49.10;;;;;;5069502;28;20453;-87
2021/08/17 05:28:28;;;;;;;12.10;6.40;;;18.90;48.90;;;;;;5070460;28;20456;-87
2021/08/17 05:30:55;;;;;;;8.77;5.40;;;18.80;46.60;;;;;;5070124;28;20428;-87
2021/08/17 05:33:22;;;;;;;14.97;6.37;;;18.90;50.60;;;;;;5070570;28;20463;-87
2021/08/17 05:35:50;;;;;;;13.00;5.43;;;19.50;48.40;;;;;;5069870;28;20432;-87
2021/08/17 05:38:17;;;;;;;8.80;5.43;;;20.40;47.90;;;;;;5070418;28;20476;-87
2021/08/17 05:40:44;;;;;;;7.87;4.83;;;21.30;43.90;;;;;;5069742;28;20432;-87
2021/08/17 05:43:11;;;;;;;8.77;5.40;;;22.00;42.30;;;;;;5069940;28;20455;-88
2021/08/17 05:45:39;;;;;;;7.43;4.80;;;23.00;40.60;;;;;;5071006;28;20922;-88
2021/08/17 05:48:07;;;;;;;9.30;4.97;;;23.60;41.00;;;;;;5070691;28;20802;-87
2021/08/17 05:50:34;;;;;;;8.27;5.27;;;24.60;37.30;;;;;;5071581;28;20448;-87
2021/08/17 05:53:01;;;;;;;7.43;5.17;;;24.30;37.00;;;;;;5069691;28;20424;-87
2021/08/17 05:55:28;;;;;;;7.93;4.80;;;24.90;37.50;;;;;;5068870;28;20602;-87
2021/08/17 05:57:57;;;;;;;9.07;4.73;;;25.20;36.90;;;;;;5069763;28;20472;-87
2021/08/17 06:00:24;;;;;;;12.93;4.33;;;26.20;35.10;;;;;;5070957;28;20444;-88
2021/08/17 06:02:53;;;;;;;6.90;3.83;;;26.70;34.70;;;;;;5072430;28;20432;-86
2021/08/17 06:05:20;;;;;;;6.33;4.50;;;27.30;32.50;;;;;;5073597;28;20477;-86
2021/08/17 06:07:47;;;;;;;12.23;6.10;;;27.70;32.90;;;;;;5073834;28;20444;-87
2021/08/17 06:10:15;;;;;;;10.07;4.50;;;28.50;30.40;;;;;;5072150;28;20416;-89
2021/08/17 06:12:43;;;;;;;6.40;4.37;;;28.50;30.00;;;;;;5072390;28;20444;-87
2021/08/17 06:15:11;;;;;;;8.40;4.70;;;28.30;29.10;;;;;;5072518;28;20487;-87
2021/08/17 06:17:38;;;;;;;8.27;5.40;;;27.60;29.90;;;;;;5072337;28;20440;-87
2021/08/17 06:20:09;;;;;;;8.93;5.00;;;27.60;30.00;;;;;;5072615;28;20467;-87
2021/08/17 06:22:36;;;;;;;5.70;4.43;;;27.90;29.10;;;;;;5072435;28;20413;-87
2021/08/17 06:25:04;;;;;;;8.53;4.03;;;28.50;29.40;;;;;;5073107;28;20452;-87
2021/08/17 06:27:34;;;;;;;6.37;4.03;;;29.00;28.00;;;;;;5071717;28;20526;-88
2021/08/17 06:30:01;;;;;;;11.33;4.60;;;29.40;27.50;;;;;;5072605;28;20453;-87
2021/08/17 06:32:28;;;;;;;15.50;6.57;;;29.40;27.40;;;;;;5067493;28;20448;-88
2021/08/17 06:34:55;;;;;;;8.77;4.27;;;29.70;27.50;;;;;;5066826;28;20577;-88
2021/08/17 06:37:23;;;;;;;9.70;4.50;;;29.80;27.30;;;;;;5068202;28;20444;-88
2021/08/17 06:39:50;;;;;;;7.00;4.50;;;29.80;27.10;;;;;;5069076;28;20484;-88
2021/08/17 06:42:17;;;;;;;5.60;3.97;;;30.50;25.80;;;;;;5070541;28;20964;-87
2021/08/17 06:44:44;;;;;;;7.43;4.40;;;30.10;27.00;;;;;;5068192;28;20472;-88
2021/08/17 06:47:11;;;;;;;16.53;7.13;;;30.40;25.70;;;;;;5067261;28;20436;-88
2021/08/17 06:49:38;;;;;;;13.80;5.40;;;30.10;25.30;;;;;;5065420;28;20440;-87
2021/08/17 06:52:05;;;;;;;9.87;6.47;;;29.20;26.20;;;;;;5067324;28;20519;-87
2021/08/17 06:54:34;;;;;;;10.43;5.53;;;28.30;27.30;;;;;;5068305;28;20494;-88
2021/08/17 06:57:01;;;;;;;8.10;5.17;;;28.20;27.30;;;;;;5067240;28;20857;-87
2021/08/17 06:59:28;;;;;;;9.23;6.00;;;28.50;27.90;;;;;;5067467;28;20476;-87
2021/08/17 07:01:55;;;;;;;8.00;4.37;;;28.50;26.20;;;;;;5065614;28;20447;-88
2021/08/17 07:04:22;;;;;;;9.30;4.70;;;28.90;26.50;;;;;;5065314;28;20467;-88
2021/08/17 07:06:49;;;;;;;11.13;5.87;;;29.10;25.70;;;;;;5066129;28;20433;-88
2021/08/17 07:09:15;;;;;;;8.93;4.47;;;28.70;26.10;;;;;;5069633;28;20441;-87
2021/08/17 07:11:44;;;;;;;5.33;4.27;;;27.80;27.00;;;;;;5072137;28;20417;-87
2021/08/17 07:14:11;;;;;;;10.40;5.50;;;27.30;27.30;;;;;;5072216;28;20473;-87
2021/08/17 07:16:38;;;;;;;10.30;5.00;;;27.70;28.30;;;;;;5071022;28;20424;-87
2021/08/17 07:19:05;;;;;;;14.80;4.20;;;27.60;27.40;;;;;;5068925;28;20549;-87
2021/08/17 07:21:32;;;;;;;10.70;5.73;;;27.90;29.10;;;;;;5069385;28;20448;-86
2021/08/17 07:23:59;;;;;;;7.60;4.23;;;27.70;27.30;;;;;;5071599;28;20456;-87
2021/08/17 07:26:26;;;;;;;11.53;5.40;;;27.90;27.80;;;;;;5071137;28;20447;-87
2021/08/17 07:28:54;;;;;;;8.60;4.97;;;28.20;26.60;;;;;;5071879;28;20439;-87
2021/08/17 07:31:21;;;;;;;12.67;5.20;;;28.90;26.80;;;;;;5072665;28;20509;-87
2021/08/17 07:33:48;;;;;;;5.87;4.10;;;29.50;23.50;;;;;;5071657;28;20488;-87
2021/08/17 07:36:15;;;;;;;7.90;5.03;;;29.70;24.20;;;;;;5072695;28;20456;-87
2021/08/17 07:38:42;;;;;;;7.33;5.53;;;30.20;22.80;;;;;;5075888;28;20514;-87
2021/08/17 07:41:09;;;;;;;9.90;4.77;;;30.20;23.00;;;;;;5074876;28;20455;-86
2021/08/17 07:43:36;;;;;;;16.50;5.23;;;30.70;22.60;;;;;;5074527;28;20515;-87
2021/08/17 07:46:04;;;;;;;10.67;5.70;;;31.30;21.60;;;;;;5074708;28;20771;-87
2021/08/17 07:48:33;;;;;;;7.53;4.80;;;31.40;22.10;;;;;;5073177;28;20463;-86
2021/08/17 07:51:00;;;;;;;10.57;4.60;;;31.20;21.50;;;;;;5073361;28;20432;-87
2021/08/17 07:53:27;;;;;;;10.50;4.93;;;30.70;22.40;;;;;;5074337;28;20448;-87
2021/08/17 07:55:54;;;;;;;8.17;5.07;;;30.90;23.00;;;;;;5075334;28;20459;-87
2021/08/17 07:58:21;;;;;;;8.23;5.40;;;30.90;20.90;;;;;;5075172;28;20482;-86
2021/08/17 08:00:48;;;;;;;12.50;5.10;;;31.40;21.80;;;;;;5074917;28;20467;-87
2021/08/17 08:03:16;;;;;;;8.20;5.40;;;31.90;21.20;;;;;;5075033;28;20440;-86
2021/08/17 08:05:44;;;;;;;10.10;5.73;;;32.10;20.90;;;;;;5073531;28;20456;-87
2021/08/17 08:08:10;;;;;;;10.63;5.63;;;31.10;21.40;;;;;;5074319;28;20446;-87
2021/08/17 08:10:38;;;;;;;7.20;5.33;;;30.60;22.40;;;;;;5074216;28;20452;-87
2021/08/17 08:13:05;;;;;;;14.13;4.63;;;30.30;22.80;;;;;;5072968;28;20440;-87
2021/08/17 08:15:32;;;;;;;31.57;16.70;;;30.30;24.80;;;;;;5073137;28;20452;-87
2021/08/17 08:17:59;;;;;;;10.50;5.37;;;30.10;23.10;;;;;;5072713;28;20445;-86
2021/08/17 08:20:27;;;;;;;9.43;5.40;;;30.20;22.50;;;;;;5071486;28;20483;-86
2021/08/17 08:22:54;;;;;;;12.17;5.63;;;29.90;23.60;;;;;;5071702;28;20478;-86
2021/08/17 08:25:21;;;;;;;8.87;5.33;;;29.40;23.90;;;;;;5072444;28;20452;-86
2021/08/17 08:27:48;;;;;;;9.97;5.97;;;27.60;25.20;;;;;;5072566;28;20456;-86
2021/08/17 08:30:16;;;;;;;10.27;6.00;;;26.40;26.90;;;;;;5071259;28;20509;-86
2021/08/17 08:32:44;;;;;;;10.60;6.23;;;27.30;26.20;;;;;;5071281;28;20463;-86
2021/08/17 08:35:12;;;;;;;9.70;5.30;;;27.20;26.50;;;;;;5074056;28;20647;-86
2021/08/17 08:37:40;;;;;;;9.90;5.97;;;27.50;26.60;;;;;;5077378;28;20444;-86
2021/08/17 08:40:10;;;;;;;11.30;6.00;;;28.00;25.80;;;;;;5073152;28;20514;-86
2021/08/17 08:42:37;;;;;;;11.60;5.77;;;28.50;27.20;;;;;;5070084;28;20428;-87
2021/08/17 08:45:06;;;;;;;9.43;5.67;;;29.10;24.00;;;;;;5070010;28;20457;-87
2021/08/17 08:47:34;;;;;;;10.90;6.10;;;28.20;25.00;;;;;;5069474;28;20440;-87
2021/08/17 08:50:02;;;;;;;9.57;5.87;;;28.40;24.90;;;;;;5069115;28;20497;-87
2021/08/17 08:52:29;;;;;;;10.83;6.83;;;28.30;25.60;;;;;;5070120;28;20452;-88
2021/08/17 08:54:57;;;;;;;11.53;5.47;;;28.80;24.90;;;;;;5070594;28;20464;-87
2021/08/17 08:57:24;;;;;;;11.07;5.83;;;28.40;24.70;;;;;;5071042;28;20447;-87
2021/08/17 08:59:51;;;;;;;9.93;6.53;;;27.10;27.10;;;;;;5071485;28;20495;-87
2021/08/17 09:02:18;;;;;;;13.93;7.40;;;26.40;26.70;;;;;;5075480;28;20435;-86
2021/08/17 09:04:56;;;;;;;11.73;6.57;;;25.30;28.60;;;;;;5072535;28;20464;-87
2021/08/17 09:07:34;;;;;;;11.60;5.93;;;25.70;29.70;;;;;;5070642;28;20420;-87
2021/08/17 09:10:05;;;;;;;10.47;6.47;;;25.50;30.30;;;;;;5071018;28;20472;-87
2021/08/17 09:12:37;;;;;;;8.47;6.20;;;25.30;31.00;;;;;;5070625;28;20432;-86
2021/08/17 09:15:13;;;;;;;10.10;6.40;;;25.40;31.50;;;;;;5069891;28;20551;-87
2021/08/17 09:17:42;;;;;;;9.30;6.30;;;25.50;30.00;;;;;;5070843;28;20417;-86
2021/08/17 09:20:14;;;;;;;11.17;6.43;;;25.40;31.10;;;;;;5070027;28;20503;-87
2021/08/17 09:22:42;;;;;;;11.77;6.77;;;25.70;28.50;;;;;;5069426;28;20412;-86
2021/08/17 09:25:11;;;;;;;11.60;6.43;;;25.10;28.70;;;;;;5069985;28;20487;-87
2021/08/17 09:27:39;;;;;;;21.13;7.93;;;25.00;28.80;;;;;;5069626;28;20462;-87
2021/08/17 09:30:09;;;;;;;12.90;6.80;;;25.40;29.80;;;;;;5070280;28;20466;-87
2021/08/17 09:32:51;;;;;;;12.60;5.97;;;25.30;28.40;;;;;;5069231;28;20431;-87
2021/08/17 09:35:20;;;;;;;12.30;5.90;;;25.60;30.00;;;;;;5070218;28;20459;-87
2021/08/17 09:38:06;;;;;;;10.40;6.23;;;25.50;29.60;;;;;;5069334;28;20455;-87
2021/08/17 09:40:35;;;;;;;9.13;6.10;;;25.70;27.90;;;;;;5069178;28;20467;-87
2021/08/17 09:43:18;;;;;;;11.67;6.77;;;25.00;30.00;;;;;;5068779;28;20444;-87
2021/08/17 09:45:45;;;;;;;13.97;6.97;;;24.60;29.90;;;;;;5066001;28;20498;-87
2021/08/17 09:48:13;;;;;;;11.20;7.27;;;25.10;29.20;;;;;;5068263;28;20444;-87
2021/08/17 09:50:42;;;;;;;9.93;6.77;;;25.40;28.50;;;;;;5067389;28;20494;-87
2021/08/17 09:53:12;;;;;;;12.27;7.03;;;25.80;30.00;;;;;;5067831;28;20443;-87
2021/08/17 09:55:43;;;;;;;9.60;6.10;;;25.60;27.80;;;;;;5067983;28;20456;-87
2021/08/17 09:58:28;;;;;;;11.67;6.60;;;25.70;29.80;;;;;;5067596;28;20413;-87
2021/08/17 10:00:58;;;;;;;14.10;7.40;;;26.10;28.20;;;;;;5065670;28;20503;-87
2021/08/17 10:03:26;;;;;;;10.00;6.43;;;26.20;28.20;;;;;;5068060;28;20444;-88
2021/08/17 10:05:53;;;;;;;10.20;6.70;;;25.90;28.00;;;;;;5068290;28;20443;-87
2021/08/17 10:08:22;;;;;;;19.00;6.80;;;25.90;28.00;;;;;;5067726;28;20448;-87
2021/08/17 10:10:52;;;;;;;8.23;5.80;;;25.90;27.50;;;;;;5068278;28;20444;-87
2021/08/17 10:13:21;;;;;;;9.67;6.10;;;26.10;29.10;;;;;;5068429;28;20494;-87
2021/08/17 10:15:49;;;;;;;17.10;6.47;;;26.10;27.30;;;;;;5067055;28;20464;-87
2021/08/17 10:18:19;;;;;;;10.73;7.43;;;25.70;27.10;;;;;;5067162;28;20456;-88
2021/08/17 10:20:49;;;;;;;8.90;6.10;;;25.60;27.80;;;;;;5065314;28;20857;-88
2021/08/17 10:23:18;;;;;;;9.90;6.47;;;25.90;28.30;;;;;;5067561;28;20535;-87
2021/08/17 10:25:51;;;;;;;8.47;6.17;;;25.90;26.20;;;;;;5068439;28;20456;-86
2021/08/17 10:28:40;;;;;;;8.90;5.60;;;25.30;26.50;;;;;;5068949;28;20448;-86
2021/08/17 10:31:22;;;;;;;11.80;6.70;;;25.40;30.00;;;;;;5063251;28;20451;-86
2021/08/17 10:33:52;;;;;;;10.87;6.43;;;25.40;27.70;;;;;;5070423;28;20503;-86
2021/08/17 10:36:37;;;;;;;11.23;6.90;;;25.10;28.60;;;;;;5068433;28;20463;-87
2021/08/17 10:39:05;;;;;;;12.03;7.60;;;25.40;27.10;;;;;;5069524;28;20425;-87
2021/08/17 10:41:39;;;;;;;10.33;6.50;;;25.50;27.10;;;;;;5070143;28;20551;-86
2021/08/17 10:44:18;;;;;;;11.13;6.60;;;25.70;26.30;;;;;;5071000;28;20449;-87
2021/08/17 10:46:48;;;;;;;11.20;7.53;;;25.70;27.30;;;;;;5071640;28;20432;-86
2021/08/17 10:49:42;;;;;;;10.67;6.63;;;25.80;27.20;;;;;;5070855;28;20428;-88
2021/08/17 10:52:11;;;;;;;10.53;6.67;;;25.60;26.30;;;;;;5062855;28;20464;-87
2021/08/17 10:54:40;;;;;;;9.60;6.50;;;25.60;26.90;;;;;;5070888;28;20483;-87
2021/08/17 10:57:22;;;;;;;13.07;6.67;;;25.70;26.50;;;;;;5070682;28;20455;-87
2021/08/17 10:59:50;;;;;;;14.37;6.67;;;26.00;27.50;;;;;;5071087;28;20491;-87
2021/08/17 11:02:22;;;;;;;9.33;6.40;;;26.30;26.00;;;;;;5070818;28;20451;-86
2021/08/17 11:04:51;;;;;;;14.63;7.70;;;25.90;26.50;;;;;;5070369;28;20468;-87
2021/08/17 11:07:31;;;;;;;10.77;7.37;;;25.30;26.20;;;;;;5071758;28;20923;-86
2021/08/17 11:10:02;;;;;;;9.67;6.80;;;25.10;26.30;;;;;;5071932;28;20444;-87
2021/08/17 11:12:38;;;;;;;11.10;6.77;;;25.30;26.60;;;;;;5074163;28;20462;-87
2021/08/17 11:15:06;;;;;;;12.50;7.53;;;25.40;27.20;;;;;;5075564;28;20463;-87
2021/08/17 11:17:34;;;;;;;10.67;7.70;;;25.10;27.20;;;;;;5075067;28;20432;-87
2021/08/17 11:20:03;;;;;;;10.00;6.17;;;24.90;27.10;;;;;;5074324;28;20483;-86
2021/08/17 11:22:34;;;;;;;9.47;6.20;;;25.10;28.80;;;;;;5073038;28;20459;-87
2021/08/17 11:25:03;;;;;;;10.97;6.57;;;25.20;27.90;;;;;;5073949;28;20475;-87
2021/08/17 11:27:36;;;;;;;12.07;6.90;;;25.80;27.00;;;;;;5075686;28;20798;-86
2021/08/17 11:30:06;;;;;;;11.93;7.30;;;25.70;26.50;;;;;;5076832;28;20436;-87
2021/08/17 11:32:36;;;;;;;14.00;7.40;;;25.50;26.30;;;;;;5075669;28;20440;-87
2021/08/17 11:35:05;;;;;;;12.93;7.00;;;24.90;26.70;;;;;;5074338;28;20460;-87
2021/08/17 11:37:33;;;;;;;11.20;6.97;;;24.10;28.10;;;;;;5075580;28;20443;-87
2021/08/17 11:40:03;;;;;;;12.63;7.03;;;24.40;28.20;;;;;;5073894;28;20567;-87
2021/08/17 11:42:32;;;;;;;12.77;7.63;;;24.90;28.10;;;;;;5073758;28;20420;-87
2021/08/17 11:45:02;;;;;;;11.37;7.47;;;25.30;27.70;;;;;;5071760;28;20456;-88
2021/08/17 11:47:31;;;;;;;13.93;7.40;;;25.20;27.10;;;;;;5071647;28;20463;-88
2021/08/17 11:50:00;;;;;;;10.83;6.60;;;25.30;27.50;;;;;;5074628;28;20433;-87
2021/08/17 11:52:34;;;;;;;14.77;7.43;;;24.60;27.30;;;;;;5074274;28;20466;-87
2021/08/17 11:55:06;;;;;;;11.30;7.33;;;24.80;27.80;;;;;;5075612;28;20495;-87
2021/08/17 11:57:35;;;;;;;14.30;7.37;;;25.30;27.20;;;;;;5077493;28;20443;-86
2021/08/17 12:00:08;;;;;;;16.73;6.97;;;25.10;27.60;;;;;;5076396;28;20479;-87
2021/08/17 12:02:39;;;;;;;15.43;7.57;;;25.40;28.10;;;;;;5073289;28;20440;-87
2021/08/17 12:05:08;;;;;;;10.53;6.87;;;25.30;26.60;;;;;;5071505;28;20468;-87
2021/08/17 12:07:35;;;;;;;10.17;6.40;;;24.70;27.30;;;;;;5073175;28;20445;-88
2021/08/17 12:10:09;;;;;;;10.80;6.90;;;24.90;32.80;;;;;;5076493;28;20424;-87
2021/08/17 12:13:00;;;;;;;10.20;6.80;;;25.10;27.30;;;;;;5071214;28;20474;-87
2021/08/17 12:15:33;;;;;;;12.27;7.47;;;25.00;27.50;;;;;;5071246;28;20468;-87
2021/08/17 12:18:05;;;;;;;10.30;6.10;;;25.00;27.50;;;;;;5070455;28;20440;-87
2021/08/17 12:20:33;;;;;;;8.70;5.60;;;25.40;26.90;;;;;;5072382;28;20467;-87
2021/08/17 12:23:13;;;;;;;10.17;6.33;;;25.40;32.00;;;;;;5069749;28;20448;-87
2021/08/17 12:25:40;;;;;;;9.90;6.23;;;25.50;27.80;;;;;;5072880;28;20478;-88
2021/08/17 12:28:08;;;;;;;10.60;6.23;;;25.30;30.20;;;;;;5072934;28;20464;-87
2021/08/17 12:30:35;;;;;;;10.80;6.73;;;25.30;26.50;;;;;;5072426;28;20440;-86
2021/08/17 12:33:04;;;;;;;10.63;6.80;;;25.70;27.00;;;;;;5077562;28;20448;-87
2021/08/17 12:35:34;;;;;;;10.80;6.50;;;26.00;25.80;;;;;;5077846;28;20472;-86
2021/08/17 12:38:15;;;;;;;9.63;6.10;;;25.70;25.90;;;;;;5072401;28;20421;-87
2021/08/17 12:40:49;;;;;;;10.40;6.97;;;26.20;28.30;;;;;;5070879;28;20842;-88
2021/08/17 12:43:22;;;;;;;8.43;5.57;;;26.60;25.80;;;;;;5071705;28;20468;-87
2021/08/17 12:45:49;;;;;;;10.37;6.57;;;26.30;25.20;;;;;;5070605;28;20472;-87
2021/08/17 12:48:20;;;;;;;13.97;7.17;;;26.40;25.00;;;;;;5071285;28;20424;-87